Terminal Aerodrome Forecast
Issued by NWS Atlanta, GA

Home | Current Version | Previous Version | Text Only | Print | Product List | Glossary On
Versions: 1 2 3 4 5 6 7 8 9 10 11 12 13 14 15
639
FTUS42 KFFC 171724
TAFMCN
TAF
KMCN 171724Z 1718/1818 29008KT P6SM VCSH SCT040 BKN080
      TEMPO 1718/1722 5SM -TSRA BKN030CB
     FM172300 25004KT P6SM FEW040 SCT250
     FM181300 26004KT P6SM FEW030 SCT250
     FM181600 28007KT P6SM SCT040 BKN200=

USA.gov is the U.S. government's official web portal to all federal, state and local government web resources and services.